Time;durP1;ratioP1;P1;durP2;ratioP2;P2;SDS_P1;SDS_P2;PMS_P1;PMS_P2;Temp;Humidity;BMP_temperature;BMP_pressure;BME280_temperature;BME280_humidity;BME280_pressure;Samples;Min_cycle;Max_cycle;Signal;HPM_P1;HPM_P2
2023/10/10 00:01:04;;;;;;;5.45;4.38;;;13.90;99.90;;;;;;5059602;28;20166;-67
2023/10/10 00:03:35;;;;;;;6.95;4.07;;;13.90;99.90;;;;;;5055716;28;20067;-67
2023/10/10 00:06:06;;;;;;;6.68;4.00;;;13.90;99.90;;;;;;5059884;28;20650;-67
2023/10/10 00:08:43;;;;;;;7.15;5.30;;;13.90;99.90;;;;;;5055115;28;20386;-67
2023/10/10 00:11:10;;;;;;;6.55;3.92;;;13.90;99.90;;;;;;5059503;28;20040;-67
2023/10/10 00:13:43;;;;;;;5.18;4.20;;;14.00;99.90;;;;;;5054605;28;20123;-67
2023/10/10 00:16:23;;;;;;;5.57;4.07;;;14.00;99.90;;;;;;5061816;28;20036;-67
2023/10/10 00:18:49;;;;;;;6.28;4.10;;;14.00;99.90;;;;;;5056195;28;20072;-66
2023/10/10 00:21:23;;;;;;;5.78;4.20;;;14.00;99.90;;;;;;5060852;28;20092;-67
2023/10/10 00:23:50;;;;;;;5.90;4.03;;;14.00;99.90;;;;;;5057447;28;20036;-67
2023/10/10 00:26:26;;;;;;;7.75;4.05;;;14.00;99.90;;;;;;5061938;28;20024;-67
2023/10/10 00:28:56;;;;;;;6.13;4.30;;;14.00;99.90;;;;;;5057004;28;20045;-67
2023/10/10 00:31:26;;;;;;;6.38;3.53;;;14.00;99.90;;;;;;5063209;28;20746;-67
2023/10/10 00:33:54;;;;;;;4.78;3.47;;;14.00;99.90;;;;;;5059492;28;20045;-67
2023/10/10 00:36:22;;;;;;;6.18;4.22;;;14.00;99.90;;;;;;5062299;28;20032;-67
2023/10/10 00:39:06;;;;;;;6.03;4.50;;;14.10;99.90;;;;;;5061623;28;20033;-67
2023/10/10 00:41:53;;;;;;;6.22;4.72;;;14.00;99.90;;;;;;5057767;28;20037;-67
2023/10/10 00:44:19;;;;;;;;;;;14.10;99.90;;;;;;5056668;28;20123;-67
2023/10/10 00:46:53;;;;;;;14.23;6.72;;;14.10;99.90;;;;;;5059561;28;19999;-67
2023/10/10 00:49:31;;;;;;;8.55;5.60;;;14.10;99.90;;;;;;5057792;28;20040;-67
2023/10/10 00:52:01;;;;;;;13.20;5.35;;;14.10;99.90;;;;;;5060305;28;20036;-67
2023/10/10 00:54:31;;;;;;;11.65;6.07;;;14.00;99.90;;;;;;5052513;28;20041;-67
2023/10/10 00:56:59;;;;;;;11.73;5.93;;;14.00;99.90;;;;;;5060525;28;20036;-67
2023/10/10 00:59:54;;;;;;;8.38;5.55;;;14.00;99.90;;;;;;5054622;28;20033;-67
2023/10/10 01:02:20;;;;;;;7.47;4.93;;;14.10;99.90;;;;;;5058970;28;20115;-67
2023/10/10 01:07:19;;;;;;;7.40;4.90;;;14.00;99.90;;;;;;5062254;28;20105;-67
2023/10/10 01:09:56;;;;;;;11.75;5.93;;;14.00;99.90;;;;;;5054578;28;20029;-67
2023/10/10 01:12:39;;;;;;;10.00;5.75;;;14.00;99.90;;;;;;5059639;28;20039;-67
2023/10/10 01:15:25;;;;;;;10.55;6.22;;;14.10;99.90;;;;;;5056785;28;20112;-67
2023/10/10 01:17:51;;;;;;;;;;;14.10;99.90;;;;;;5073941;28;20033;-67
2023/10/10 01:22:48;;;;;;;7.60;5.13;;;14.00;99.90;;;;;;5060114;28;20039;-67
2023/10/10 01:25:41;;;;;;;7.55;4.88;;;14.00;99.90;;;;;;5056703;28;20020;-67
2023/10/10 01:33:42;;;;;;;8.10;5.07;;;14.10;99.90;;;;;;5062912;28;20484;-67
2023/10/10 01:36:12;;;;;;;6.40;4.55;;;14.10;99.90;;;;;;5063177;28;20392;-67
2023/10/10 01:38:44;;;;;;;6.07;4.25;;;14.10;99.90;;;;;;5061153;28;20408;-67
2023/10/10 01:41:22;;;;;;;7.95;4.50;;;14.10;99.90;;;;;;5063089;28;20032;-67
2023/10/10 01:43:53;;;;;;;7.07;4.45;;;14.10;99.90;;;;;;5060113;28;20029;-67
2023/10/10 01:46:27;;;;;;;6.80;4.40;;;14.10;99.90;;;;;;5062733;28;20060;-66
2023/10/10 01:49:02;;;;;;;6.22;4.40;;;14.10;99.90;;;;;;5060562;28;20128;-67
2023/10/10 01:51:33;;;;;;;7.53;4.70;;;14.20;99.90;;;;;;5062787;28;20052;-67
2023/10/10 01:54:14;;;;;;;9.68;5.80;;;14.20;99.90;;;;;;5059157;28;20074;-67
2023/10/10 01:56:40;;;;;;;7.13;4.57;;;14.20;99.90;;;;;;5076574;28;20477;-67
2023/10/10 01:59:15;;;;;;;6.15;4.28;;;14.20;99.90;;;;;;5061975;28;20032;-67
2023/10/10 02:01:41;;;;;;;10.93;5.72;;;14.20;99.90;;;;;;5060775;28;20028;-67
2023/10/10 02:04:08;;;;;;;11.55;4.68;;;14.20;99.90;;;;;;5065278;28;20109;-67
2023/10/10 02:06:39;;;;;;;5.88;4.65;;;14.20;99.90;;;;;;5074860;28;20040;-67
2023/10/10 02:09:12;;;;;;;7.25;5.15;;;14.20;99.90;;;;;;5058718;28;20024;-67
2023/10/10 02:11:49;;;;;;;6.03;4.30;;;14.20;99.90;;;;;;5064947;28;20053;-67
2023/10/10 02:14:18;;;;;;;6.30;4.18;;;14.20;99.90;;;;;;5063989;28;20037;-67
2023/10/10 02:16:49;;;;;;;6.80;4.50;;;14.20;99.90;;;;;;5060763;28;20041;-67
2023/10/10 02:19:25;;;;;;;7.72;4.35;;;14.20;99.90;;;;;;5060465;28;20552;-67
2023/10/10 02:22:03;;;;;;;7.05;4.47;;;14.20;99.90;;;;;;5063240;28;20025;-67
2023/10/10 02:26:55;;;;;;;6.10;4.43;;;14.30;99.90;;;;;;5063733;28;20028;-67
2023/10/10 02:32:11;;;;;;;6.72;4.68;;;14.30;99.90;;;;;;5063621;28;20033;-67
2023/10/10 02:34:56;;;;;;;5.82;4.32;;;14.30;99.90;;;;;;5061339;28;20040;-67
2023/10/10 02:40:07;;;;;;;5.85;4.05;;;14.40;99.90;;;;;;5057130;28;20119;-67
2023/10/10 02:42:35;;;;;;;8.77;4.45;;;14.40;99.90;;;;;;5060152;28;20131;-67
2023/10/10 02:45:02;;;;;;;8.18;4.65;;;14.40;99.90;;;;;;5059021;28;20507;-67
2023/10/10 02:47:31;;;;;;;5.13;3.80;;;14.40;99.90;;;;;;5060072;28;20459;-67
2023/10/10 02:50:09;;;;;;;8.57;4.72;;;14.50;99.90;;;;;;5057331;28;20089;-67
2023/10/10 02:52:38;;;;;;;8.95;4.70;;;14.50;99.90;;;;;;5059404;28;20551;-67
2023/10/10 02:55:14;;;;;;;8.00;4.40;;;14.50;99.90;;;;;;5058279;28;20056;-67
2023/10/10 02:57:41;;;;;;;4.60;3.63;;;14.50;99.90;;;;;;5060544;28;20035;-67
2023/10/10 03:00:16;;;;;;;6.13;4.38;;;14.50;99.90;;;;;;5059637;28;20566;-67
2023/10/10 03:02:53;;;;;;;6.13;4.47;;;14.50;99.90;;;;;;5060798;28;20040;-67
2023/10/10 03:08:14;;;;;;;6.00;4.45;;;14.50;99.90;;;;;;5060585;28;20116;-67
2023/10/10 03:10:53;;;;;;;6.75;4.30;;;14.50;99.90;;;;;;5054492;28;20109;-67
2023/10/10 03:13:36;;;;;;;5.30;4.00;;;14.50;99.90;;;;;;5063843;28;20407;-66
2023/10/10 03:16:40;;;;;;;6.80;3.88;;;14.50;99.90;;;;;;5062750;28;20028;-67
2023/10/10 03:21:44;;;;;;;5.47;3.80;;;14.60;99.90;;;;;;5057079;28;20041;-67
2023/10/10 03:25:09;;;;;;;4.82;3.63;;;14.60;99.90;;;;;;5061203;28;20024;-67
2023/10/10 03:27:11;;;;;;;4.60;3.00;;;14.60;99.90;;;;;;5050762;28;20501;-67
2023/10/10 03:29:46;;;;;;;3.97;2.83;;;14.70;99.90;;;;;;5056677;28;20151;-67
2023/10/10 03:34:57;;;;;;;3.80;2.50;;;14.70;99.90;;;;;;5060851;28;20024;-67
2023/10/10 03:40:21;;;;;;;2.90;2.20;;;14.80;99.90;;;;;;5073874;28;20033;-67
2023/10/10 05:24:21;;;;;;;3.75;2.88;;;15.40;99.90;;;;;;5063551;28;20033;-67
2023/10/10 05:26:47;;;;;;;2.40;1.73;;;15.40;99.90;;;;;;5061989;28;20032;-67
2023/10/10 05:29:14;;;;;;;2.67;2.15;;;15.30;99.90;;;;;;5065468;28;20111;-67
2023/10/10 05:31:43;;;;;;;2.80;1.88;;;15.40;99.90;;;;;;5064710;28;20515;-66
2023/10/10 05:34:10;;;;;;;3.15;2.25;;;15.40;99.90;;;;;;5065002;28;20032;-67
2023/10/10 05:36:36;;;;;;;3.42;1.98;;;15.40;99.90;;;;;;5058876;28;20032;-67
2023/10/10 05:39:02;;;;;;;3.40;2.20;;;15.40;99.90;;;;;;5061002;28;20032;-67
2023/10/10 05:41:29;;;;;;;2.78;1.92;;;15.50;99.90;;;;;;5060399;28;20809;-67
2023/10/10 05:43:59;;;;;;;3.72;2.13;;;15.40;99.90;;;;;;5061051;28;20178;-67
2023/10/10 05:46:25;;;;;;;3.03;2.20;;;15.40;99.90;;;;;;5060521;28;20036;-67
2023/10/10 05:48:51;;;;;;;2.17;1.60;;;15.50;99.90;;;;;;5060454;28;20029;-66
2023/10/10 05:51:17;;;;;;;2.67;2.10;;;15.50;99.90;;;;;;5061727;28;20582;-67
2023/10/10 05:53:43;;;;;;;3.40;2.00;;;15.50;99.90;;;;;;5057795;28;20412;-67
2023/10/10 05:56:16;;;;;;;2.63;2.33;;;15.50;99.90;;;;;;5062433;28;20582;-67
2023/10/10 05:58:45;;;;;;;2.10;1.90;;;15.50;99.90;;;;;;5059242;28;20046;-67
2023/10/10 06:01:14;;;;;;;4.70;2.58;;;15.50;99.90;;;;;;5062825;28;20032;-67
2023/10/10 06:03:46;;;;;;;3.33;2.55;;;15.60;99.90;;;;;;5058894;28;20036;-67
2023/10/10 06:06:13;;;;;;;3.92;3.30;;;15.60;99.90;;;;;;5062405;28;20599;-67
2023/10/10 06:08:43;;;;;;;5.85;4.28;;;15.60;99.90;;;;;;5058805;28;20041;-67
2023/10/10 06:11:10;;;;;;;7.55;6.25;;;15.60;99.90;;;;;;5062190;28;20717;-67
2023/10/10 06:13:39;;;;;;;7.35;6.40;;;15.60;99.90;;;;;;5058611;28;20072;-67
2023/10/10 06:16:12;;;;;;;6.15;5.45;;;15.60;99.90;;;;;;5059852;28;20373;-67
2023/10/10 06:18:44;;;;;;;6.97;5.80;;;15.60;99.90;;;;;;5058501;28;20758;-67
2023/10/10 06:21:11;;;;;;;6.18;5.63;;;15.70;99.90;;;;;;5065064;28;20028;-67
2023/10/10 06:23:37;;;;;;;11.30;10.18;;;15.70;99.90;;;;;;5059220;28;20044;-68
2023/10/10 06:26:06;;;;;;;11.32;6.38;;;15.70;99.90;;;;;;5062616;28;20094;-67
2023/10/10 06:28:45;;;;;;;4.60;3.97;;;15.70;99.90;;;;;;5058929;28;20162;-67
2023/10/10 06:31:20;;;;;;;4.68;3.28;;;15.80;99.90;;;;;;5058704;28;20764;-67
2023/10/10 06:33:49;;;;;;;5.43;3.17;;;15.80;99.90;;;;;;5059448;28;20532;-67
2023/10/10 06:41:51;;;;;;;5.07;3.05;;;15.90;99.90;;;;;;5018033;28;20068;-67
2023/10/10 06:44:31;;;;;;;4.72;2.80;;;15.90;99.90;;;;;;5064871;28;20036;-67
2023/10/10 06:46:59;;;;;;;5.05;3.60;;;15.90;99.90;;;;;;5058672;28;20029;-67
2023/10/10 06:49:25;;;;;;;5.18;3.35;;;16.00;99.90;;;;;;5061917;28;20086;-67
2023/10/10 06:51:55;;;;;;;4.93;3.65;;;16.00;99.90;;;;;;5059563;28;20028;-67
2023/10/10 06:54:34;;;;;;;5.47;3.28;;;16.10;99.90;;;;;;5058619;28;20473;-67
2023/10/10 06:59:27;;;;;;;4.60;3.25;;;16.10;99.90;;;;;;5057080;28;20035;-67
2023/10/10 07:01:59;;;;;;;5.00;2.53;;;16.10;99.90;;;;;;5059400;28;20077;-67
2023/10/10 07:04:27;;;;;;;4.13;2.65;;;16.10;99.90;;;;;;5058547;28;20032;-67
2023/10/10 07:06:55;;;;;;;3.63;2.95;;;16.20;99.90;;;;;;5060049;28;20045;-67
2023/10/10 07:09:27;;;;;;;4.80;2.97;;;16.20;99.90;;;;;;5058616;28;20028;-67
2023/10/10 07:11:55;;;;;;;4.45;2.95;;;16.20;99.90;;;;;;5059360;28;20101;-67
2023/10/10 07:14:20;;;;;;;3.58;2.72;;;16.30;99.90;;;;;;5055596;28;20490;-67
2023/10/10 07:16:46;;;;;;;5.00;3.20;;;16.30;99.90;;;;;;5059950;28;20036;-67
2023/10/10 07:19:30;;;;;;;5.50;3.47;;;16.30;99.90;;;;;;5058206;28;20174;-67
2023/10/10 07:21:57;;;;;;;9.52;3.80;;;16.40;99.90;;;;;;5059901;28;20477;-67
2023/10/10 07:24:29;;;;;;;5.60;3.10;;;16.40;99.90;;;;;;5054606;28;20025;-67
2023/10/10 07:27:11;;;;;;;4.90;3.20;;;16.40;99.90;;;;;;5063826;28;20067;-67
2023/10/10 07:32:18;;;;;;;4.38;2.83;;;16.40;99.90;;;;;;5059184;28;20117;-67
2023/10/10 07:34:51;;;;;;;5.27;3.10;;;16.40;99.90;;;;;;5057362;28;20024;-67
2023/10/10 07:37:18;;;;;;;4.63;2.50;;;16.40;99.90;;;;;;5060274;28;20029;-67
2023/10/10 07:39:57;;;;;;;5.60;3.00;;;16.50;99.90;;;;;;5057720;28;20044;-67
2023/10/10 07:42:31;;;;;;;5.50;3.00;;;16.50;99.90;;;;;;5059418;28;20041;-67
2023/10/10 07:45:13;;;;;;;5.47;2.55;;;16.60;99.90;;;;;;5059133;28;20183;-67
2023/10/10 07:50:34;;;;;;;;;;;16.70;99.90;;;;;;5027640;28;20052;-67
2023/10/10 07:53:03;;;;;;;5.05;3.58;;;16.80;99.90;;;;;;5058896;28;19912;-67
2023/10/10 07:55:51;;;;;;;5.70;3.28;;;16.90;99.90;;;;;;5060073;28;20024;-67
2023/10/10 07:58:15;;;;;;;11.52;4.82;;;16.90;99.90;;;;;;5058423;28;20025;-67
2023/10/10 08:00:41;;;;;;;8.73;4.03;;;16.90;99.90;;;;;;5058555;28;20031;-67
2023/10/10 08:03:06;;;;;;;4.40;3.15;;;16.90;99.90;;;;;;5050911;28;20029;-64
2023/10/10 08:05:35;;;;;;;4.22;3.20;;;16.90;99.90;;;;;;5059388;28;20036;-66
2023/10/10 08:08:04;;;;;;;4.65;4.15;;;16.90;99.90;;;;;;5059232;28;20024;-67
2023/10/10 08:10:38;;;;;;;8.02;4.63;;;16.90;99.90;;;;;;5060567;28;20555;-67
2023/10/10 08:13:10;;;;;;;6.22;3.97;;;17.00;99.90;;;;;;5059198;28;20039;-68
2023/10/10 08:15:51;;;;;;;6.57;4.90;;;17.00;99.90;;;;;;5058971;28;20037;-67
2023/10/10 08:23:30;;;;;;;5.32;3.22;;;17.10;99.90;;;;;;5056407;28;20043;-67
2023/10/10 08:25:57;;;;;;;4.28;2.50;;;17.10;99.90;;;;;;5061112;28;20029;-67
2023/10/10 08:28:23;;;;;;;5.32;3.55;;;17.20;99.90;;;;;;5059781;28;20047;-67
2023/10/10 08:30:50;;;;;;;4.97;3.30;;;17.20;99.90;;;;;;5057450;28;20484;-67
2023/10/10 08:33:16;;;;;;;4.50;3.35;;;17.30;99.90;;;;;;5058589;28;20047;-67
2023/10/10 08:35:42;;;;;;;5.28;2.38;;;17.30;99.90;;;;;;5055183;28;20028;-67
2023/10/10 08:38:19;;;;;;;4.30;2.58;;;17.40;99.90;;;;;;5057535;28;20025;-66
2023/10/10 08:41:01;;;;;;;7.13;3.28;;;17.40;99.90;;;;;;5054667;28;20033;-67
2023/10/10 08:43:31;;;;;;;3.63;2.40;;;17.40;99.90;;;;;;5059920;28;20059;-67
2023/10/10 08:45:59;;;;;;;4.03;2.40;;;17.50;99.90;;;;;;5063651;28;20052;-67
2023/10/10 08:48:27;;;;;;;4.78;2.33;;;17.50;99.90;;;;;;5063111;28;20217;-67
2023/10/10 08:51:03;;;;;;;4.53;2.35;;;17.50;99.90;;;;;;5068094;28;20043;-67
2023/10/10 08:53:30;;;;;;;4.75;2.60;;;17.60;99.90;;;;;;5063403;28;20115;-67
2023/10/10 08:55:56;;;;;;;3.53;2.42;;;17.60;99.90;;;;;;5064733;28;20459;-67
2023/10/10 08:58:22;;;;;;;2.83;1.98;;;17.70;99.90;;;;;;5065398;28;20032;-67
2023/10/10 09:00:49;;;;;;;7.90;2.47;;;17.70;99.90;;;;;;5067209;28;20094;-67
2023/10/10 09:03:15;;;;;;;6.32;2.25;;;17.80;99.90;;;;;;5067340;28;20703;-67
2023/10/10 09:05:41;;;;;;;3.05;1.90;;;17.70;99.90;;;;;;5062427;28;20032;-67
2023/10/10 09:08:16;;;;;;;2.85;1.60;;;17.80;99.90;;;;;;5065901;28;20033;-67
2023/10/10 09:10:53;;;;;;;3.78;2.10;;;17.80;99.90;;;;;;5061952;28;20619;-67
2023/10/10 09:13:19;;;;;;;3.38;2.00;;;17.80;99.90;;;;;;5065291;28;20044;-66
2023/10/10 09:15:55;;;;;;;3.38;2.20;;;17.80;99.90;;;;;;5062726;28;20036;-67
2023/10/10 09:18:22;;;;;;;;;;;17.90;99.90;;;;;;5064602;28;20503;-66
2023/10/10 09:20:49;;;;;;;7.93;4.50;;;18.00;99.90;;;;;;5065707;28;19914;-66
2023/10/10 09:23:32;;;;;;;5.90;3.65;;;18.00;99.90;;;;;;5066126;28;20032;-66
2023/10/10 09:28:58;;;;;;;42.15;19.70;;;18.00;99.90;;;;;;5062418;28;20047;-65
2023/10/10 09:31:26;;;;;;;27.58;14.00;;;18.10;99.90;;;;;;5068607;28;20028;-67
2023/10/10 09:33:56;;;;;;;22.58;12.57;;;18.10;99.90;;;;;;5062507;28;20483;-66
2023/10/10 09:36:27;;;;;;;19.88;10.93;;;18.10;99.90;;;;;;5065680;28;20822;-67
2023/10/10 09:39:08;;;;;;;9.15;6.35;;;18.10;99.90;;;;;;5061911;28;20040;-67
2023/10/10 09:47:17;;;;;;;6.07;3.08;;;18.10;99.90;;;;;;5060642;28;20048;-67
2023/10/10 09:50:27;;;;;;;4.18;3.10;;;18.10;99.90;;;;;;5061191;28;20045;-67
2023/10/10 09:52:50;;;;;;;3.63;2.50;;;18.10;99.90;;;;;;5061861;28;20036;-67
2023/10/10 09:57:58;;;;;;;6.68;1.95;;;18.10;99.90;;;;;;5060124;28;20047;-66
2023/10/10 10:00:31;;;;;;;3.55;2.25;;;18.00;99.90;;;;;;5060060;28;20032;-67
2023/10/10 10:03:00;;;;;;;2.30;2.00;;;18.00;99.90;;;;;;5062854;28;20028;-67
2023/10/10 10:05:39;;;;;;;2.83;1.67;;;17.90;99.90;;;;;;5059310;28;20491;-67
2023/10/10 10:08:22;;;;;;;4.30;2.30;;;17.90;99.90;;;;;;5062474;28;20070;-67
2023/10/10 10:10:57;;;;;;;4.07;1.90;;;17.90;99.90;;;;;;5056035;28;20086;-67
2023/10/10 10:13:48;;;;;;;3.57;2.00;;;17.80;99.90;;;;;;5062031;28;20036;-67
2023/10/10 10:16:35;;;;;;;3.60;2.78;;;17.80;99.90;;;;;;5053503;28;20299;-67
2023/10/10 10:19:15;;;;;;;6.95;3.25;;;17.80;99.90;;;;;;5061045;28;20026;-67
2023/10/10 10:22:06;;;;;;;5.10;2.58;;;17.70;99.90;;;;;;5057619;28;20140;-66
2023/10/10 10:24:33;;;;;;;2.80;2.53;;;17.70;99.90;;;;;;5057327;28;20032;-66
2023/10/10 10:30:07;;;;;;;5.75;2.40;;;17.70;99.90;;;;;;5058244;28;20705;-67
2023/10/10 10:32:35;;;;;;;5.20;3.13;;;17.70;99.90;;;;;;5059526;28;20714;-67
2023/10/10 10:35:03;;;;;;;4.45;2.63;;;17.80;99.90;;;;;;5057173;28;20412;-67
2023/10/10 10:37:30;;;;;;;5.50;2.30;;;17.80;99.90;;;;;;5060279;28;20760;-67
2023/10/10 10:42:51;;;;;;;21.23;10.73;;;17.80;99.90;;;;;;5060175;28;20037;-67
2023/10/10 10:45:23;;;;;;;5.03;2.83;;;17.90;99.90;;;;;;5062621;28;20036;-66
2023/10/10 10:47:59;;;;;;;5.43;2.45;;;17.90;99.90;;;;;;5061431;28;20040;-67
2023/10/10 10:50:28;;;;;;;6.40;2.42;;;17.90;99.90;;;;;;5060287;28;20078;-66
2023/10/10 10:52:59;;;;;;;4.10;2.10;;;18.00;99.90;;;;;;5062521;28;20041;-67
2023/10/10 10:55:29;;;;;;;9.07;3.50;;;18.00;99.90;;;;;;5057541;28;20036;-67
2023/10/10 10:58:08;;;;;;;6.43;3.10;;;18.00;99.90;;;;;;5062207;28;20516;-67
2023/10/10 11:01:07;;;;;;;8.90;3.88;;;18.00;99.90;;;;;;5057676;28;20841;-67
2023/10/10 11:03:37;;;;;;;5.05;3.17;;;18.00;99.90;;;;;;5062797;28;20048;-67
2023/10/10 11:06:09;;;;;;;5.20;2.20;;;18.00;99.90;;;;;;5056010;28;20416;-67
2023/10/10 11:11:25;;;;;;;5.07;3.08;;;17.90;99.90;;;;;;5058536;28;20562;-67
2023/10/10 11:13:54;;;;;;;4.95;2.40;;;17.90;99.90;;;;;;5059614;28;20089;-67
2023/10/10 11:16:28;;;;;;;3.40;2.17;;;17.90;99.90;;;;;;5057501;28;20483;-67
2023/10/10 11:19:03;;;;;;;3.67;2.15;;;18.00;99.90;;;;;;5060546;28;20470;-67
2023/10/10 11:21:31;;;;;;;2.60;2.38;;;18.10;99.90;;;;;;5057515;28;20492;-67
2023/10/10 11:23:58;;;;;;;5.20;2.50;;;18.10;99.90;;;;;;5058744;28;20033;-67
2023/10/10 11:26:24;;;;;;;7.95;2.60;;;18.20;99.90;;;;;;5057243;28;20032;-67
2023/10/10 11:28:49;;;;;;;3.25;2.20;;;18.30;99.90;;;;;;5059998;28;20108;-67
2023/10/10 11:31:29;;;;;;;3.03;2.20;;;18.30;99.90;;;;;;5057350;28;20144;-67
2023/10/10 11:34:10;;;;;;;2.97;2.10;;;18.40;99.90;;;;;;5060557;28;20083;-68
2023/10/10 11:36:39;;;;;;;4.70;2.58;;;18.40;99.90;;;;;;5057483;28;20113;-67
2023/10/10 11:39:32;;;;;;;3.00;2.70;;;18.40;99.90;;;;;;5060708;28;20055;-67
2023/10/10 11:42:00;;;;;;;4.22;2.20;;;18.40;99.90;;;;;;5056611;28;20037;-68
2023/10/10 11:44:29;;;;;;;1.75;1.58;;;18.40;99.90;;;;;;5060645;28;20032;-67
2023/10/10 11:47:04;;;;;;;2.63;2.15;;;18.30;99.90;;;;;;5059461;28;20048;-67
2023/10/10 11:49:32;;;;;;;3.07;2.20;;;18.40;99.90;;;;;;5058303;28;20043;-67
2023/10/10 11:51:58;;;;;;;2.45;2.17;;;18.40;99.90;;;;;;5056785;28;20139;-66
2023/10/10 11:54:25;;;;;;;3.35;2.10;;;18.50;99.90;;;;;;5060651;28;20154;-66
2023/10/10 11:56:52;;;;;;;3.10;2.00;;;18.50;99.90;;;;;;5055423;28;20036;-66
2023/10/10 11:59:18;;;;;;;2.95;2.17;;;18.60;99.90;;;;;;5063140;28;20029;-67
2023/10/10 12:01:51;;;;;;;4.28;1.92;;;18.60;99.90;;;;;;5063351;28;20028;-67
2023/10/10 12:04:20;;;;;;;6.10;2.55;;;18.60;99.90;;;;;;5061429;28;20033;-65
2023/10/10 12:06:49;;;;;;;2.50;1.60;;;18.80;99.90;;;;;;5057241;28;20033;-65
2023/10/10 12:09:19;;;;;;;3.28;1.88;;;18.80;99.90;;;;;;5062984;28;20025;-66
2023/10/10 12:11:45;;;;;;;2.50;1.80;;;18.90;99.90;;;;;;5058744;28;20049;-68
2023/10/10 12:14:18;;;;;;;3.10;2.00;;;19.00;99.90;;;;;;5061605;28;20036;-67
2023/10/10 12:16:50;;;;;;;3.13;1.55;;;19.10;99.90;;;;;;5056777;28;20049;-67
2023/10/10 12:19:16;;;;;;;3.80;1.70;;;19.00;99.90;;;;;;5061590;28;20119;-67
2023/10/10 12:21:42;;;;;;;2.83;1.35;;;18.90;99.90;;;;;;5054760;28;20060;-67
2023/10/10 12:24:07;;;;;;;2.28;1.65;;;18.80;99.90;;;;;;5061477;28;20055;-67
2023/10/10 12:26:38;;;;;;;2.03;1.33;;;18.70;99.90;;;;;;5058784;28;20493;-67
2023/10/10 12:29:04;;;;;;;3.25;2.00;;;18.60;99.90;;;;;;5061779;28;20039;-67
2023/10/10 12:31:33;;;;;;;1.60;1.50;;;18.60;99.90;;;;;;5056182;28;20036;-67
2023/10/10 12:34:00;;;;;;;2.38;1.70;;;18.60;99.90;;;;;;5060591;28;20769;-68
2023/10/10 12:36:28;;;;;;;1.23;0.95;;;18.60;99.90;;;;;;5056908;28;20029;-67
2023/10/10 12:38:55;;;;;;;3.40;1.40;;;18.50;99.90;;;;;;5058532;28;20566;-67
2023/10/10 12:41:21;;;;;;;3.45;1.77;;;18.50;99.90;;;;;;5056199;28;20032;-68
2023/10/10 12:43:48;;;;;;;2.15;1.30;;;18.60;99.90;;;;;;5058381;28;20052;-68
2023/10/10 12:46:17;;;;;;;2.38;1.40;;;18.60;99.90;;;;;;5056494;28;20036;-68
2023/10/10 12:48:43;;;;;;;3.50;1.88;;;18.60;99.90;;;;;;5058732;28;20045;-68
2023/10/10 12:51:12;;;;;;;2.42;1.33;;;18.60;99.90;;;;;;5058701;28;20512;-68
2023/10/10 12:53:39;;;;;;;1.88;1.70;;;18.70;99.90;;;;;;5054459;28;20075;-68
2023/10/10 12:56:12;;;;;;;2.80;1.50;;;18.80;99.90;;;;;;5058317;28;20061;-68
2023/10/10 12:58:43;;;;;;;2.60;1.30;;;18.80;99.90;;;;;;5059113;28;20123;-67
2023/10/10 13:01:22;;;;;;;4.68;1.52;;;18.90;99.90;;;;;;5056807;28;20469;-68
2023/10/10 13:03:48;;;;;;;2.47;1.35;;;18.80;99.90;;;;;;5055557;28;20041;-67
2023/10/10 13:06:14;;;;;;;3.25;1.90;;;18.80;99.90;;;;;;5058673;28;20036;-67
2023/10/10 13:11:20;;;;;;;2.60;1.40;;;18.70;99.90;;;;;;5056783;28;20041;-67
2023/10/10 13:13:52;;;;;;;2.58;1.73;;;18.70;99.90;;;;;;5054954;28;20039;-67
2023/10/10 13:16:52;;;;;;;3.40;2.00;;;18.70;99.90;;;;;;5058867;28;20028;-67
2023/10/10 13:19:14;;;;;;;2.70;1.63;;;18.80;99.90;;;;;;5053970;28;20032;-67
2023/10/10 13:21:41;;;;;;;4.70;1.70;;;18.90;99.90;;;;;;5052813;28;20126;-67
2023/10/10 13:24:11;;;;;;;4.43;1.60;;;18.80;99.90;;;;;;5055306;28;20029;-67
2023/10/10 13:26:41;;;;;;;4.85;1.73;;;18.80;99.90;;;;;;5055903;28;20495;-67
2023/10/10 13:29:08;;;;;;;2.40;1.60;;;18.70;99.90;;;;;;5058099;28;20739;-67
2023/10/10 13:31:34;;;;;;;3.30;1.70;;;18.70;99.90;;;;;;5059839;28;20023;-67
2023/10/10 13:34:01;;;;;;;3.35;1.55;;;18.70;99.90;;;;;;5063972;28;20044;-67
2023/10/10 13:36:27;;;;;;;1.38;1.27;;;18.60;99.90;;;;;;5060312;28;20487;-67
2023/10/10 13:38:57;;;;;;;1.58;1.10;;;18.60;99.90;;;;;;5061004;28;20078;-68
2023/10/10 13:41:28;;;;;;;3.97;2.00;;;18.60;99.90;;;;;;5061925;28;20032;-68
2023/10/10 13:43:59;;;;;;;2.95;1.25;;;18.70;99.90;;;;;;5060188;28;20040;-67
2023/10/10 13:46:27;;;;;;;3.22;1.63;;;18.80;99.90;;;;;;5062140;28;20041;-67
2023/10/10 13:48:53;;;;;;;2.17;1.40;;;18.80;99.90;;;;;;5061795;28;20044;-68
2023/10/10 13:51:19;;;;;;;2.08;1.25;;;18.80;99.90;;;;;;5061120;28;20089;-67
2023/10/10 13:53:46;;;;;;;1.95;1.30;;;18.80;99.90;;;;;;5058488;28;20095;-67
2023/10/10 13:56:16;;;;;;;2.60;1.73;;;18.90;99.90;;;;;;5061049;28;20790;-68
2023/10/10 13:58:51;;;;;;;1.33;1.20;;;18.80;99.90;;;;;;5059380;28;20079;-67
2023/10/10 14:01:29;;;;;;;1.83;1.30;;;18.80;99.90;;;;;;5062777;28;20032;-67
2023/10/10 14:04:13;;;;;;;1.30;1.20;;;18.70;99.90;;;;;;5057372;28;20074;-67
2023/10/10 14:06:45;;;;;;;1.35;1.13;;;18.70;99.90;;;;;;5058724;28;20083;-67
2023/10/10 14:09:12;;;;;;;1.45;1.15;;;18.70;99.90;;;;;;5058275;28;20503;-67
2023/10/10 14:11:38;;;;;;;2.33;1.42;;;18.70;99.90;;;;;;5061468;28;20861;-67
2023/10/10 14:14:06;;;;;;;1.30;1.20;;;18.80;99.90;;;;;;5060992;28;20082;-67
2023/10/10 14:16:32;;;;;;;4.68;1.73;;;18.80;99.90;;;;;;5062723;28;20055;-69
2023/10/10 14:19:01;;;;;;;3.55;1.42;;;18.90;99.90;;;;;;5060503;28;20756;-67
2023/10/10 14:21:27;;;;;;;1.55;1.30;;;18.90;99.90;;;;;;5059324;28;20040;-66
2023/10/10 14:24:08;;;;;;;1.67;1.33;;;18.90;99.90;;;;;;5063164;28;20101;-67
2023/10/10 14:26:37;;;;;;;5.53;2.40;;;18.80;99.90;;;;;;5059273;28;20032;-67
2023/10/10 14:29:08;;;;;;;3.25;2.30;;;18.80;99.90;;;;;;5058101;28;20118;-67
2023/10/10 14:31:42;;;;;;;6.80;6.18;;;18.70;99.90;;;;;;5057910;28;20115;-67
2023/10/10 14:34:11;;;;;;;5.57;4.85;;;18.70;99.90;;;;;;5057749;28;20028;-67
2023/10/10 14:36:39;;;;;;;5.40;5.00;;;18.70;99.90;;;;;;5059636;28;20127;-67
2023/10/10 14:39:28;;;;;;;4.97;4.68;;;18.70;99.90;;;;;;5061718;28;20020;-67
2023/10/10 14:41:57;;;;;;;3.85;3.55;;;18.60;99.90;;;;;;5062464;28;20123;-67
2023/10/10 14:44:27;;;;;;;6.25;5.47;;;18.60;99.90;;;;;;5057606;28;20037;-67
2023/10/10 14:47:02;;;;;;;3.50;3.20;;;18.60;99.90;;;;;;5059958;28;20037;-67
2023/10/10 14:49:31;;;;;;;4.32;2.90;;;18.50;99.90;;;;;;5058696;28;20585;-67
2023/10/10 14:52:05;;;;;;;2.38;2.17;;;18.50;99.90;;;;;;5060797;28;20735;-67
2023/10/10 14:54:37;;;;;;;2.00;1.80;;;18.40;99.90;;;;;;5059959;28;20042;-67
2023/10/10 14:57:04;;;;;;;2.05;1.42;;;18.40;99.90;;;;;;5060129;28;20048;-67
2023/10/10 14:59:35;;;;;;;2.47;1.52;;;18.40;99.90;;;;;;5057559;28;20691;-67
2023/10/10 15:02:04;;;;;;;2.35;1.80;;;18.40;99.90;;;;;;5075224;28;20067;-67
2023/10/10 15:04:30;;;;;;;1.45;1.30;;;18.40;99.90;;;;;;5057850;28;20029;-67
2023/10/10 15:06:57;;;;;;;2.75;1.50;;;18.40;99.90;;;;;;5059487;28;20472;-67
2023/10/10 15:09:25;;;;;;;2.40;1.50;;;18.40;99.90;;;;;;5059065;28;20058;-67
2023/10/10 15:11:58;;;;;;;1.65;1.55;;;18.40;99.90;;;;;;5062914;28;20408;-67
2023/10/10 15:14:25;;;;;;;6.07;1.92;;;18.40;99.90;;;;;;5058136;28;20040;-67
2023/10/10 15:16:51;;;;;;;4.50;1.73;;;18.40;99.90;;;;;;5061300;28;20040;-67
2023/10/10 15:19:17;;;;;;;1.98;1.30;;;18.30;99.90;;;;;;5057832;28;20210;-67
2023/10/10 15:21:48;;;;;;;5.20;1.98;;;18.30;99.90;;;;;;5058973;28;20139;-67
2023/10/10 15:24:15;;;;;;;2.65;1.80;;;18.30;99.90;;;;;;5060236;28;20035;-67
2023/10/10 15:26:45;;;;;;;2.60;1.58;;;18.30;99.90;;;;;;5059315;28;20059;-67
2023/10/10 15:29:14;;;;;;;4.15;1.83;;;18.30;99.90;;;;;;5057190;28;20028;-67
2023/10/10 15:31:40;;;;;;;3.38;2.20;;;18.20;99.90;;;;;;5057502;28;20040;-67
2023/10/10 15:34:13;;;;;;;1.90;1.70;;;18.10;99.90;;;;;;5057088;28;20181;-67
2023/10/10 15:36:43;;;;;;;2.10;1.60;;;18.10;99.90;;;;;;5057545;28;20091;-68
2023/10/10 15:39:10;;;;;;;5.03;1.90;;;18.10;99.90;;;;;;5056123;28;20032;-67
2023/10/10 15:41:37;;;;;;;2.15;1.92;;;18.00;99.90;;;;;;5061609;28;20032;-67
2023/10/10 15:44:04;;;;;;;5.80;2.15;;;18.00;99.90;;;;;;5062021;28;20029;-67
2023/10/10 15:46:35;;;;;;;3.45;2.20;;;17.90;99.90;;;;;;5061247;28;20036;-67
2023/10/10 15:49:03;;;;;;;2.70;1.88;;;17.90;99.90;;;;;;5056227;28;20163;-67
2023/10/10 15:51:35;;;;;;;2.72;1.83;;;17.80;99.90;;;;;;5061504;28;20056;-67
2023/10/10 15:54:02;;;;;;;3.35;2.05;;;17.80;99.90;;;;;;5056928;28;20117;-67
2023/10/10 15:56:29;;;;;;;3.42;1.83;;;17.70;99.90;;;;;;5061593;28;20124;-67
2023/10/10 15:58:56;;;;;;;2.35;1.60;;;17.60;99.90;;;;;;5058794;28;20539;-67
2023/10/10 16:01:27;;;;;;;2.53;2.08;;;17.60;99.90;;;;;;5060806;28;20016;-68